sensor_id;sensor_type;location;lat;lon;timestamp;temperature;humidity
7016;DHT22;3548;48.402;9.990;2023-03-01T00:00:51;0.20;99.90
7016;DHT22;3548;48.402;9.990;2023-03-01T00:03:16;0.10;99.90
7016;DHT22;3548;48.402;9.990;2023-03-01T00:05:46;0.00;99.90
7016;DHT22;3548;48.402;9.990;2023-03-01T00:08:11;0.00;99.90
7016;DHT22;3548;48.402;9.990;2023-03-01T00:10:37;0.00;99.90
7016;DHT22;3548;48.402;9.990;2023-03-01T00:13:03;0.00;99.90
7016;DHT22;3548;48.402;9.990;2023-03-01T00:15:31;0.10;99.90
7016;DHT22;3548;48.402;9.990;2023-03-01T00:17:56;0.10;99.90
7016;DHT22;3548;48.402;9.990;2023-03-01T00:20:22;0.10;99.90
7016;DHT22;3548;48.402;9.990;2023-03-01T00:22:48;0.00;99.90
7016;DHT22;3548;48.402;9.990;2023-03-01T00:25:13;0.00;99.90
7016;DHT22;3548;48.402;9.990;2023-03-01T00:27:39;0.00;99.90
7016;DHT22;3548;48.402;9.990;2023-03-01T00:30:05;0.10;99.90
7016;DHT22;3548;48.402;9.990;2023-03-01T00:32:30;0.10;99.90
7016;DHT22;3548;48.402;9.990;2023-03-01T00:34:57;0.10;99.90
7016;DHT22;3548;48.402;9.990;2023-03-01T00:37:23;0.10;99.90
7016;DHT22;3548;48.402;9.990;2023-03-01T00:39:49;0.10;99.90
7016;DHT22;3548;48.402;9.990;2023-03-01T00:42:16;0.00;99.90
7016;DHT22;3548;48.402;9.990;2023-03-01T00:44:41;0.10;99.90
7016;DHT22;3548;48.402;9.990;2023-03-01T00:47:07;0.10;99.90
7016;DHT22;3548;48.402;9.990;2023-03-01T00:49:32;0.00;99.90
7016;DHT22;3548;48.402;9.990;2023-03-01T00:51:58;0.00;99.90
7016;DHT22;3548;48.402;9.990;2023-03-01T00:54:23;0.10;99.90
7016;DHT22;3548;48.402;9.990;2023-03-01T00:56:49;0.10;99.90
7016;DHT22;3548;48.402;9.990;2023-03-01T00:59:15;0.00;99.90
7016;DHT22;3548;48.402;9.990;2023-03-01T01:01:40;0.10;99.90
7016;DHT22;3548;48.402;9.990;2023-03-01T01:04:08;0.10;99.90
7016;DHT22;3548;48.402;9.990;2023-03-01T01:06:39;0.10;99.90
7016;DHT22;3548;48.402;9.990;2023-03-01T01:09:10;0.10;99.90
7016;DHT22;3548;48.402;9.990;2023-03-01T01:11:46;0.00;99.90
7016;DHT22;3548;48.402;9.990;2023-03-01T01:14:12;0.00;99.90
7016;DHT22;3548;48.402;9.990;2023-03-01T01:16:37;0.00;99.90
7016;DHT22;3548;48.402;9.990;2023-03-01T01:19:03;0.00;99.90
7016;DHT22;3548;48.402;9.990;2023-03-01T01:21:30;0.00;99.90
7016;DHT22;3548;48.402;9.990;2023-03-01T01:23:56;0.00;99.90
7016;DHT22;3548;48.402;9.990;2023-03-01T01:26:25;0.00;99.90
7016;DHT22;3548;48.402;9.990;2023-03-01T01:28:51;0.10;99.90
7016;DHT22;3548;48.402;9.990;2023-03-01T01:31:18;0.10;99.90
7016;DHT22;3548;48.402;9.990;2023-03-01T01:33:45;0.10;99.90
7016;DHT22;3548;48.402;9.990;2023-03-01T01:36:11;0.10;99.90
7016;DHT22;3548;48.402;9.990;2023-03-01T01:38:37;0.10;99.90
7016;DHT22;3548;48.402;9.990;2023-03-01T01:41:04;0.20;99.90
7016;DHT22;3548;48.402;9.990;2023-03-01T01:43:38;0.20;99.90
7016;DHT22;3548;48.402;9.990;2023-03-01T01:46:25;0.20;99.90
7016;DHT22;3548;48.402;9.990;2023-03-01T01:49:06;0.20;99.90
7016;DHT22;3548;48.402;9.990;2023-03-01T01:51:38;0.10;99.90
7016;DHT22;3548;48.402;9.990;2023-03-01T01:54:10;0.10;99.90
7016;DHT22;3548;48.402;9.990;2023-03-01T01:56:40;0.10;99.90
7016;DHT22;3548;48.402;9.990;2023-03-01T01:59:07;0.00;99.90
7016;DHT22;3548;48.402;9.990;2023-03-01T02:01:33;0.00;99.90
7016;DHT22;3548;48.402;9.990;2023-03-01T02:03:58;-0.10;99.90
7016;DHT22;3548;48.402;9.990;2023-03-01T02:06:37;0.00;99.90
7016;DHT22;3548;48.402;9.990;2023-03-01T02:09:12;0.00;99.90
7016;DHT22;3548;48.402;9.990;2023-03-01T02:11:38;0.00;99.90
7016;DHT22;3548;48.402;9.990;2023-03-01T02:14:05;0.10;99.90
7016;DHT22;3548;48.402;9.990;2023-03-01T02:16:30;0.10;99.90
7016;DHT22;3548;48.402;9.990;2023-03-01T02:18:57;0.10;99.90
7016;DHT22;3548;48.402;9.990;2023-03-01T02:21:45;0.10;99.90
7016;DHT22;3548;48.402;9.990;2023-03-01T02:26:49;0.10;99.90
7016;DHT22;3548;48.402;9.990;2023-03-01T02:29:18;0.00;99.90
7016;DHT22;3548;48.402;9.990;2023-03-01T02:31:43;0.00;99.90
7016;DHT22;3548;48.402;9.990;2023-03-01T02:34:13;0.00;99.90
7016;DHT22;3548;48.402;9.990;2023-03-01T02:37:01;0.00;99.90
7016;DHT22;3548;48.402;9.990;2023-03-01T02:39:44;0.00;99.90
7016;DHT22;3548;48.402;9.990;2023-03-01T02:42:14;0.00;99.90
7016;DHT22;3548;48.402;9.990;2023-03-01T02:44:42;0.00;99.90
7016;DHT22;3548;48.402;9.990;2023-03-01T02:47:08;0.10;99.90
7016;DHT22;3548;48.402;9.990;2023-03-01T02:49:35;0.10;99.90
7016;DHT22;3548;48.402;9.990;2023-03-01T02:52:13;0.10;99.90
7016;DHT22;3548;48.402;9.990;2023-03-01T02:55:03;0.10;99.90
7016;DHT22;3548;48.402;9.990;2023-03-01T02:57:34;0.10;99.90
7016;DHT22;3548;48.402;9.990;2023-03-01T03:00:04;0.10;99.90
7016;DHT22;3548;48.402;9.990;2023-03-01T03:02:35;0.10;99.90
7016;DHT22;3548;48.402;9.990;2023-03-01T03:05:03;0.10;99.90
7016;DHT22;3548;48.402;9.990;2023-03-01T03:07:28;0.10;99.90
7016;DHT22;3548;48.402;9.990;2023-03-01T03:09:54;0.10;99.90
7016;DHT22;3548;48.402;9.990;2023-03-01T03:12:20;0.00;99.90
7016;DHT22;3548;48.402;9.990;2023-03-01T03:14:45;0.00;99.90
7016;DHT22;3548;48.402;9.990;2023-03-01T03:17:11;0.00;99.90
7016;DHT22;3548;48.402;9.990;2023-03-01T03:19:36;-0.10;99.90
7016;DHT22;3548;48.402;9.990;2023-03-01T03:22:02;0.00;99.90
7016;DHT22;3548;48.402;9.990;2023-03-01T03:24:27;0.00;99.90
7016;DHT22;3548;48.402;9.990;2023-03-01T03:26:54;0.00;99.90
7016;DHT22;3548;48.402;9.990;2023-03-01T03:29:19;0.00;99.90
7016;DHT22;3548;48.402;9.990;2023-03-01T03:31:45;0.00;99.90
7016;DHT22;3548;48.402;9.990;2023-03-01T03:34:10;0.00;99.90
7016;DHT22;3548;48.402;9.990;2023-03-01T03:36:43;0.00;99.90
7016;DHT22;3548;48.402;9.990;2023-03-01T03:39:08;0.00;99.90
7016;DHT22;3548;48.402;9.990;2023-03-01T03:41:34;0.00;99.90
7016;DHT22;3548;48.402;9.990;2023-03-01T03:44:00;0.10;99.90
7016;DHT22;3548;48.402;9.990;2023-03-01T03:46:25;0.10;99.90
7016;DHT22;3548;48.402;9.990;2023-03-01T03:48:51;0.20;99.90
7016;DHT22;3548;48.402;9.990;2023-03-01T03:51:17;0.20;99.90
7016;DHT22;3548;48.402;9.990;2023-03-01T03:53:44;0.10;99.90
7016;DHT22;3548;48.402;9.990;2023-03-01T03:56:10;0.10;99.90
7016;DHT22;3548;48.402;9.990;2023-03-01T03:58:36;0.10;99.90
7016;DHT22;3548;48.402;9.990;2023-03-01T04:01:03;0.10;99.90
7016;DHT22;3548;48.402;9.990;2023-03-01T04:03:30;0.10;99.90
7016;DHT22;3548;48.402;9.990;2023-03-01T04:05:58;0.10;99.90
7016;DHT22;3548;48.402;9.990;2023-03-01T04:08:24;0.10;99.90
7016;DHT22;3548;48.402;9.990;2023-03-01T04:10:52;0.20;99.90
7016;DHT22;3548;48.402;9.990;2023-03-01T04:13:21;0.10;99.90
7016;DHT22;3548;48.402;9.990;2023-03-01T04:15:51;0.10;99.90
7016;DHT22;3548;48.402;9.990;2023-03-01T04:18:18;0.10;99.90
7016;DHT22;3548;48.402;9.990;2023-03-01T04:20:44;0.20;99.90
7016;DHT22;3548;48.402;9.990;2023-03-01T04:23:18;0.20;99.90
7016;DHT22;3548;48.402;9.990;2023-03-01T04:25:56;0.20;99.90
7016;DHT22;3548;48.402;9.990;2023-03-01T04:28:28;0.20;99.90
7016;DHT22;3548;48.402;9.990;2023-03-01T04:30:56;0.20;99.90
7016;DHT22;3548;48.402;9.990;2023-03-01T04:33:23;0.10;99.90
7016;DHT22;3548;48.402;9.990;2023-03-01T04:35:50;0.10;99.90
7016;DHT22;3548;48.402;9.990;2023-03-01T04:38:19;0.10;99.90
7016;DHT22;3548;48.402;9.990;2023-03-01T04:40:45;0.10;99.90
7016;DHT22;3548;48.402;9.990;2023-03-01T04:43:11;0.10;99.90
7016;DHT22;3548;48.402;9.990;2023-03-01T04:45:39;0.10;99.90
7016;DHT22;3548;48.402;9.990;2023-03-01T04:48:05;0.10;99.90
7016;DHT22;3548;48.402;9.990;2023-03-01T04:50:31;0.10;99.90
7016;DHT22;3548;48.402;9.990;2023-03-01T04:52:57;0.10;99.90
7016;DHT22;3548;48.402;9.990;2023-03-01T04:55:25;0.00;99.90
7016;DHT22;3548;48.402;9.990;2023-03-01T04:57:51;0.00;99.90
7016;DHT22;3548;48.402;9.990;2023-03-01T05:00:18;0.00;99.90
7016;DHT22;3548;48.402;9.990;2023-03-01T05:02:54;0.10;99.90
7016;DHT22;3548;48.402;9.990;2023-03-01T05:05:33;0.10;99.90
7016;DHT22;3548;48.402;9.990;2023-03-01T05:08:01;0.10;99.90
7016;DHT22;3548;48.402;9.990;2023-03-01T05:10:29;0.10;99.90
7016;DHT22;3548;48.402;9.990;2023-03-01T05:12:56;0.10;99.90
7016;DHT22;3548;48.402;9.990;2023-03-01T05:15:23;0.10;99.90
7016;DHT22;3548;48.402;9.990;2023-03-01T05:17:51;0.10;99.90
7016;DHT22;3548;48.402;9.990;2023-03-01T05:20:17;0.00;99.90
7016;DHT22;3548;48.402;9.990;2023-03-01T05:22:43;0.00;99.90
7016;DHT22;3548;48.402;9.990;2023-03-01T05:25:09;0.00;99.90
7016;DHT22;3548;48.402;9.990;2023-03-01T05:27:35;0.00;99.90
7016;DHT22;3548;48.402;9.990;2023-03-01T05:30:02;-0.10;99.90
7016;DHT22;3548;48.402;9.990;2023-03-01T05:32:42;-0.10;99.90
7016;DHT22;3548;48.402;9.990;2023-03-01T05:35:10;-0.10;99.90
7016;DHT22;3548;48.402;9.990;2023-03-01T05:37:42;-0.10;99.90
7016;DHT22;3548;48.402;9.990;2023-03-01T05:40:10;-0.10;99.90
7016;DHT22;3548;48.402;9.990;2023-03-01T05:42:42;-0.10;99.90
7016;DHT22;3548;48.402;9.990;2023-03-01T05:45:08;-0.10;99.90
7016;DHT22;3548;48.402;9.990;2023-03-01T05:47:35;-0.10;99.90
7016;DHT22;3548;48.402;9.990;2023-03-01T05:50:01;-0.10;99.90
7016;DHT22;3548;48.402;9.990;2023-03-01T05:52:27;-0.10;99.90
7016;DHT22;3548;48.402;9.990;2023-03-01T05:54:53;-0.20;99.90
7016;DHT22;3548;48.402;9.990;2023-03-01T05:57:18;-0.20;99.90
7016;DHT22;3548;48.402;9.990;2023-03-01T05:59:45;-0.20;99.90
7016;DHT22;3548;48.402;9.990;2023-03-01T06:02:11;-0.20;99.90
7016;DHT22;3548;48.402;9.990;2023-03-01T06:04:36;-0.20;99.90
7016;DHT22;3548;48.402;9.990;2023-03-01T06:07:02;-0.20;99.90
7016;DHT22;3548;48.402;9.990;2023-03-01T06:09:27;-0.20;99.90
7016;DHT22;3548;48.402;9.990;2023-03-01T06:11:53;-0.30;99.90
7016;DHT22;3548;48.402;9.990;2023-03-01T06:14:19;-0.30;99.90
7016;DHT22;3548;48.402;9.990;2023-03-01T06:16:46;-0.30;99.90
7016;DHT22;3548;48.402;9.990;2023-03-01T06:19:11;-0.20;99.90
7016;DHT22;3548;48.402;9.990;2023-03-01T06:21:37;-0.20;99.90
7016;DHT22;3548;48.402;9.990;2023-03-01T06:24:03;-0.30;99.90
7016;DHT22;3548;48.402;9.990;2023-03-01T06:26:28;-0.40;99.90
7016;DHT22;3548;48.402;9.990;2023-03-01T06:28:54;-0.30;99.90
7016;DHT22;3548;48.402;9.990;2023-03-01T06:31:19;-0.30;99.90
7016;DHT22;3548;48.402;9.990;2023-03-01T06:33:45;-0.30;99.90
7016;DHT22;3548;48.402;9.990;2023-03-01T06:36:10;-0.30;99.90
7016;DHT22;3548;48.402;9.990;2023-03-01T06:38:36;-0.40;99.90
7016;DHT22;3548;48.402;9.990;2023-03-01T06:41:01;-0.40;99.90
7016;DHT22;3548;48.402;9.990;2023-03-01T06:43:27;-0.40;99.90
7016;DHT22;3548;48.402;9.990;2023-03-01T06:45:53;-0.40;99.90
7016;DHT22;3548;48.402;9.990;2023-03-01T06:48:18;-0.40;99.90
7016;DHT22;3548;48.402;9.990;2023-03-01T06:50:44;-0.40;99.90
7016;DHT22;3548;48.402;9.990;2023-03-01T06:53:09;-0.40;99.90
7016;DHT22;3548;48.402;9.990;2023-03-01T06:55:35;-0.50;99.90
7016;DHT22;3548;48.402;9.990;2023-03-01T06:58:02;-0.50;99.90
7016;DHT22;3548;48.402;9.990;2023-03-01T07:00:28;-0.50;99.90
7016;DHT22;3548;48.402;9.990;2023-03-01T07:02:54;-0.50;99.90
7016;DHT22;3548;48.402;9.990;2023-03-01T07:05:23;-0.50;99.90
7016;DHT22;3548;48.402;9.990;2023-03-01T07:07:48;-0.50;99.90
7016;DHT22;3548;48.402;9.990;2023-03-01T07:10:14;-0.50;99.90
7016;DHT22;3548;48.402;9.990;2023-03-01T07:12:39;-0.60;99.90
7016;DHT22;3548;48.402;9.990;2023-03-01T07:15:08;-0.50;99.90
7016;DHT22;3548;48.402;9.990;2023-03-01T07:17:34;-0.50;99.90
7016;DHT22;3548;48.402;9.990;2023-03-01T07:20:00;-0.50;99.90
7016;DHT22;3548;48.402;9.990;2023-03-01T07:22:26;-0.50;99.90
7016;DHT22;3548;48.402;9.990;2023-03-01T07:24:51;-0.40;99.90
7016;DHT22;3548;48.402;9.990;2023-03-01T07:27:17;-0.40;99.90
7016;DHT22;3548;48.402;9.990;2023-03-01T07:29:42;-0.30;99.90
7016;DHT22;3548;48.402;9.990;2023-03-01T07:32:08;-0.20;99.90
7016;DHT22;3548;48.402;9.990;2023-03-01T07:34:35;-0.20;99.90
7016;DHT22;3548;48.402;9.990;2023-03-01T07:37:00;-0.20;99.90
7016;DHT22;3548;48.402;9.990;2023-03-01T07:39:26;-0.20;99.90
7016;DHT22;3548;48.402;9.990;2023-03-01T07:41:52;-0.30;99.90
7016;DHT22;3548;48.402;9.990;2023-03-01T07:44:17;-0.30;99.90
7016;DHT22;3548;48.402;9.990;2023-03-01T07:46:43;-0.20;99.90
7016;DHT22;3548;48.402;9.990;2023-03-01T07:49:09;-0.20;99.90
7016;DHT22;3548;48.402;9.990;2023-03-01T07:54:01;-0.10;99.90
7016;DHT22;3548;48.402;9.990;2023-03-01T07:56:27;-0.10;99.90
7016;DHT22;3548;48.402;9.990;2023-03-01T07:58:53;-0.10;99.90
7016;DHT22;3548;48.402;9.990;2023-03-01T08:01:20;-0.10;99.90
7016;DHT22;3548;48.402;9.990;2023-03-01T08:03:46;-0.10;99.90
7016;DHT22;3548;48.402;9.990;2023-03-01T08:11:07;0.00;99.90
7016;DHT22;3548;48.402;9.990;2023-03-01T08:13:33;0.10;99.90
7016;DHT22;3548;48.402;9.990;2023-03-01T08:16:03;0.10;99.90
7016;DHT22;3548;48.402;9.990;2023-03-01T08:18:29;0.10;99.90
7016;DHT22;3548;48.402;9.990;2023-03-01T08:20:54;0.20;99.90
7016;DHT22;3548;48.402;9.990;2023-03-01T08:23:20;0.40;99.90
7016;DHT22;3548;48.402;9.990;2023-03-01T08:25:46;0.50;99.90
7016;DHT22;3548;48.402;9.990;2023-03-01T08:28:11;0.40;99.90
7016;DHT22;3548;48.402;9.990;2023-03-01T08:30:37;0.40;99.90
7016;DHT22;3548;48.402;9.990;2023-03-01T08:33:02;0.50;99.90
7016;DHT22;3548;48.402;9.990;2023-03-01T08:35:28;0.50;99.90
7016;DHT22;3548;48.402;9.990;2023-03-01T08:37:53;0.60;99.90
7016;DHT22;3548;48.402;9.990;2023-03-01T08:40:19;0.60;99.90
7016;DHT22;3548;48.402;9.990;2023-03-01T08:42:45;0.60;99.90
7016;DHT22;3548;48.402;9.990;2023-03-01T08:45:11;0.80;99.90
7016;DHT22;3548;48.402;9.990;2023-03-01T08:47:37;0.90;99.90
7016;DHT22;3548;48.402;9.990;2023-03-01T08:50:04;1.00;99.90
7016;DHT22;3548;48.402;9.990;2023-03-01T08:52:29;0.90;99.90
7016;DHT22;3548;48.402;9.990;2023-03-01T08:54:55;0.80;99.90
7016;DHT22;3548;48.402;9.990;2023-03-01T08:57:21;0.70;99.90
7016;DHT22;3548;48.402;9.990;2023-03-01T08:59:47;0.60;99.90
7016;DHT22;3548;48.402;9.990;2023-03-01T09:02:15;0.60;99.90
7016;DHT22;3548;48.402;9.990;2023-03-01T09:04:41;0.80;99.90
7016;DHT22;3548;48.402;9.990;2023-03-01T09:07:07;1.00;99.90
7016;DHT22;3548;48.402;9.990;2023-03-01T09:09:32;1.20;99.90
7016;DHT22;3548;48.402;9.990;2023-03-01T09:11:58;1.30;99.90
7016;DHT22;3548;48.402;9.990;2023-03-01T09:14:24;1.20;99.90
7016;DHT22;3548;48.402;9.990;2023-03-01T09:16:50;1.10;99.90
7016;DHT22;3548;48.402;9.990;2023-03-01T09:19:16;0.90;99.90
7016;DHT22;3548;48.402;9.990;2023-03-01T09:21:41;0.90;99.90
7016;DHT22;3548;48.402;9.990;2023-03-01T09:24:22;0.80;99.90
7016;DHT22;3548;48.402;9.990;2023-03-01T09:26:48;0.90;99.90
7016;DHT22;3548;48.402;9.990;2023-03-01T09:29:15;1.00;99.90
7016;DHT22;3548;48.402;9.990;2023-03-01T09:31:41;1.20;99.90
7016;DHT22;3548;48.402;9.990;2023-03-01T09:34:07;1.20;99.90
7016;DHT22;3548;48.402;9.990;2023-03-01T09:36:33;1.20;99.90
7016;DHT22;3548;48.402;9.990;2023-03-01T09:39:00;1.30;99.90
7016;DHT22;3548;48.402;9.990;2023-03-01T09:46:53;1.20;99.90
7016;DHT22;3548;48.402;9.990;2023-03-01T09:49:23;1.20;99.90
7016;DHT22;3548;48.402;9.990;2023-03-01T09:52:15;1.30;99.90
7016;DHT22;3548;48.402;9.990;2023-03-01T09:54:45;1.10;99.90
7016;DHT22;3548;48.402;9.990;2023-03-01T09:57:26;1.10;99.90
7016;DHT22;3548;48.402;9.990;2023-03-01T10:00:18;1.10;99.90
7016;DHT22;3548;48.402;9.990;2023-03-01T10:02:51;1.10;99.90
7016;DHT22;3548;48.402;9.990;2023-03-01T10:08:27;1.40;99.90
7016;DHT22;3548;48.402;9.990;2023-03-01T10:10:55;1.40;99.90
7016;DHT22;3548;48.402;9.990;2023-03-01T10:13:26;1.50;99.90
7016;DHT22;3548;48.402;9.990;2023-03-01T10:16:17;1.60;99.90
7016;DHT22;3548;48.402;9.990;2023-03-01T10:18:43;1.70;99.90
7016;DHT22;3548;48.402;9.990;2023-03-01T10:21:18;2.00;99.90
7016;DHT22;3548;48.402;9.990;2023-03-01T10:23:44;2.30;99.90
7016;DHT22;3548;48.402;9.990;2023-03-01T10:26:32;2.40;99.90
7016;DHT22;3548;48.402;9.990;2023-03-01T10:29:08;2.40;99.90
7016;DHT22;3548;48.402;9.990;2023-03-01T10:31:47;2.40;99.90
7016;DHT22;3548;48.402;9.990;2023-03-01T10:34:26;2.10;99.90
7016;DHT22;3548;48.402;9.990;2023-03-01T10:36:57;2.20;99.90
7016;DHT22;3548;48.402;9.990;2023-03-01T10:39:25;2.30;99.90
7016;DHT22;3548;48.402;9.990;2023-03-01T10:42:05;2.30;99.90
7016;DHT22;3548;48.402;9.990;2023-03-01T10:44:46;2.40;99.90
7016;DHT22;3548;48.402;9.990;2023-03-01T10:47:18;2.40;99.90
7016;DHT22;3548;48.402;9.990;2023-03-01T10:52:20;2.50;99.90
7016;DHT22;3548;48.402;9.990;2023-03-01T10:54:55;2.50;99.90
7016;DHT22;3548;48.402;9.990;2023-03-01T10:57:37;2.60;99.90
7016;DHT22;3548;48.402;9.990;2023-03-01T11:00:19;2.70;99.90
7016;DHT22;3548;48.402;9.990;2023-03-01T11:03:13;2.90;99.90
7016;DHT22;3548;48.402;9.990;2023-03-01T11:06:03;2.90;99.90
7016;DHT22;3548;48.402;9.990;2023-03-01T11:08:42;2.80;99.90
7016;DHT22;3548;48.402;9.990;2023-03-01T11:14:01;2.70;99.90
7016;DHT22;3548;48.402;9.990;2023-03-01T11:16:35;2.90;99.90
7016;DHT22;3548;48.402;9.990;2023-03-01T11:22:01;3.50;99.90
7016;DHT22;3548;48.402;9.990;2023-03-01T11:24:54;3.70;99.80
7016;DHT22;3548;48.402;9.990;2023-03-01T11:33:13;4.00;99.80
7016;DHT22;3548;48.402;9.990;2023-03-01T11:35:38;4.20;99.50
7016;DHT22;3548;48.402;9.990;2023-03-01T11:38:24;4.10;98.40
7016;DHT22;3548;48.402;9.990;2023-03-01T11:40:59;4.00;98.50
7016;DHT22;3548;48.402;9.990;2023-03-01T11:46:40;3.70;99.60
7016;DHT22;3548;48.402;9.990;2023-03-01T11:52:16;3.80;99.00
7016;DHT22;3548;48.402;9.990;2023-03-01T11:57:54;3.90;98.90
7016;DHT22;3548;48.402;9.990;2023-03-01T12:03:30;4.00;98.80
7016;DHT22;3548;48.402;9.990;2023-03-01T12:11:39;4.20;98.50
7016;DHT22;3548;48.402;9.990;2023-03-01T12:25:43;4.40;98.80
7016;DHT22;3548;48.402;9.990;2023-03-01T12:31:26;4.40;98.50
7016;DHT22;3548;48.402;9.990;2023-03-01T12:36:51;4.50;98.20
7016;DHT22;3548;48.402;9.990;2023-03-01T12:49:42;4.60;98.70
7016;DHT22;3548;48.402;9.990;2023-03-01T12:52:14;4.60;98.10
7016;DHT22;3548;48.402;9.990;2023-03-01T12:54:42;4.60;98.20
7016;DHT22;3548;48.402;9.990;2023-03-01T12:57:25;4.70;98.20
7016;DHT22;3548;48.402;9.990;2023-03-01T13:00:11;4.80;98.20
7016;DHT22;3548;48.402;9.990;2023-03-01T13:06:02;4.70;98.40
7016;DHT22;3548;48.402;9.990;2023-03-01T13:08:39;4.60;98.10
7016;DHT22;3548;48.402;9.990;2023-03-01T13:11:19;4.60;98.60
7016;DHT22;3548;48.402;9.990;2023-03-01T13:13:45;4.80;98.20
7016;DHT22;3548;48.402;9.990;2023-03-01T13:19:15;4.90;98.50
7016;DHT22;3548;48.402;9.990;2023-03-01T13:21:43;5.00;98.20
7016;DHT22;3548;48.402;9.990;2023-03-01T13:29:50;5.10;97.50
7016;DHT22;3548;48.402;9.990;2023-03-01T13:32:36;5.10;97.60
7016;DHT22;3548;48.402;9.990;2023-03-01T13:37:40;5.10;97.70
7016;DHT22;3548;48.402;9.990;2023-03-01T13:42:53;5.30;97.60
7016;DHT22;3548;48.402;9.990;2023-03-01T13:45:33;5.30;97.70
7016;DHT22;3548;48.402;9.990;2023-03-01T13:48:29;5.40;97.60
7016;DHT22;3548;48.402;9.990;2023-03-01T13:51:03;5.50;97.50
7016;DHT22;3548;48.402;9.990;2023-03-01T13:53:31;5.60;97.60
7016;DHT22;3548;48.402;9.990;2023-03-01T13:56:02;5.50;97.50
7016;DHT22;3548;48.402;9.990;2023-03-01T13:58:33;5.50;97.50
7016;DHT22;3548;48.402;9.990;2023-03-01T14:01:22;5.60;97.60
7016;DHT22;3548;48.402;9.990;2023-03-01T14:03:48;5.70;97.30
7016;DHT22;3548;48.402;9.990;2023-03-01T14:06:21;5.80;96.90
7016;DHT22;3548;48.402;9.990;2023-03-01T14:08:49;5.80;97.40
7016;DHT22;3548;48.402;9.990;2023-03-01T14:19:39;6.00;97.20
7016;DHT22;3548;48.402;9.990;2023-03-01T14:24:54;6.40;96.60
7016;DHT22;3548;48.402;9.990;2023-03-01T14:27:20;6.20;96.40
7016;DHT22;3548;48.402;9.990;2023-03-01T14:29:58;6.10;96.30
7016;DHT22;3548;48.402;9.990;2023-03-01T14:32:26;6.10;96.40
7016;DHT22;3548;48.402;9.990;2023-03-01T14:34:52;6.00;96.30
7016;DHT22;3548;48.402;9.990;2023-03-01T14:37:26;5.90;96.50
7016;DHT22;3548;48.402;9.990;2023-03-01T14:39:54;5.90;96.80
7016;DHT22;3548;48.402;9.990;2023-03-01T14:42:22;5.80;96.70
7016;DHT22;3548;48.402;9.990;2023-03-01T14:44:51;5.70;96.90
7016;DHT22;3548;48.402;9.990;2023-03-01T14:47:27;5.80;96.90
7016;DHT22;3548;48.402;9.990;2023-03-01T14:52:35;5.80;96.90
7016;DHT22;3548;48.402;9.990;2023-03-01T14:55:06;5.70;97.00
7016;DHT22;3548;48.402;9.990;2023-03-01T14:57:32;5.80;97.10
7016;DHT22;3548;48.402;9.990;2023-03-01T15:00:01;5.80;97.10
7016;DHT22;3548;48.402;9.990;2023-03-01T15:02:32;5.80;96.90
7016;DHT22;3548;48.402;9.990;2023-03-01T15:05:01;5.80;96.70
7016;DHT22;3548;48.402;9.990;2023-03-01T15:07:38;5.90;96.80
7016;DHT22;3548;48.402;9.990;2023-03-01T15:10:05;6.00;96.80
7016;DHT22;3548;48.402;9.990;2023-03-01T15:12:35;6.00;96.70
7016;DHT22;3548;48.402;9.990;2023-03-01T15:17:52;5.90;96.70
7016;DHT22;3548;48.402;9.990;2023-03-01T15:20:20;5.90;96.60
7016;DHT22;3548;48.402;9.990;2023-03-01T15:22:51;5.80;96.90
7016;DHT22;3548;48.402;9.990;2023-03-01T15:25:23;5.80;96.90
7016;DHT22;3548;48.402;9.990;2023-03-01T15:27:52;5.90;97.10
7016;DHT22;3548;48.402;9.990;2023-03-01T15:30:33;5.90;96.90
7016;DHT22;3548;48.402;9.990;2023-03-01T15:33:25;5.80;96.60
7016;DHT22;3548;48.402;9.990;2023-03-01T15:35:55;5.80;96.90
7016;DHT22;3548;48.402;9.990;2023-03-01T15:38:36;5.80;97.10
7016;DHT22;3548;48.402;9.990;2023-03-01T15:41:31;5.80;96.90
7016;DHT22;3548;48.402;9.990;2023-03-01T15:44:13;5.80;96.80
7016;DHT22;3548;48.402;9.990;2023-03-01T15:46:39;5.70;96.80
7016;DHT22;3548;48.402;9.990;2023-03-01T15:49:33;5.80;96.90
7016;DHT22;3548;48.402;9.990;2023-03-01T15:52:00;5.80;96.90
7016;DHT22;3548;48.402;9.990;2023-03-01T15:56:53;5.70;96.70
7016;DHT22;3548;48.402;9.990;2023-03-01T15:59:18;5.70;97.10
7016;DHT22;3548;48.402;9.990;2023-03-01T16:01:45;5.70;97.20
7016;DHT22;3548;48.402;9.990;2023-03-01T16:04:12;5.70;97.10
7016;DHT22;3548;48.402;9.990;2023-03-01T16:06:47;5.70;97.10
7016;DHT22;3548;48.402;9.990;2023-03-01T16:09:25;5.70;97.10
7016;DHT22;3548;48.402;9.990;2023-03-01T16:11:52;5.70;97.00
7016;DHT22;3548;48.402;9.990;2023-03-01T16:14:20;5.70;97.30
7016;DHT22;3548;48.402;9.990;2023-03-01T16:16:46;5.70;97.10
7016;DHT22;3548;48.402;9.990;2023-03-01T16:19:13;5.70;97.00
7016;DHT22;3548;48.402;9.990;2023-03-01T16:21:41;5.70;97.30
7016;DHT22;3548;48.402;9.990;2023-03-01T16:24:09;5.70;97.70
7016;DHT22;3548;48.402;9.990;2023-03-01T16:26:36;5.70;97.50
7016;DHT22;3548;48.402;9.990;2023-03-01T16:29:03;5.70;97.30
7016;DHT22;3548;48.402;9.990;2023-03-01T16:31:28;5.70;97.40
7016;DHT22;3548;48.402;9.990;2023-03-01T16:33:58;5.70;97.30
7016;DHT22;3548;48.402;9.990;2023-03-01T16:36:26;5.70;97.60
7016;DHT22;3548;48.402;9.990;2023-03-01T16:38:54;5.70;97.60
7016;DHT22;3548;48.402;9.990;2023-03-01T16:41:21;5.70;97.40
7016;DHT22;3548;48.402;9.990;2023-03-01T16:43:47;5.70;97.70
7016;DHT22;3548;48.402;9.990;2023-03-01T16:46:15;5.60;97.50
7016;DHT22;3548;48.402;9.990;2023-03-01T16:48:41;5.60;97.80
7016;DHT22;3548;48.402;9.990;2023-03-01T16:51:07;5.60;97.80
7016;DHT22;3548;48.402;9.990;2023-03-01T16:53:34;5.50;98.10
7016;DHT22;3548;48.402;9.990;2023-03-01T16:56:02;5.50;98.10
7016;DHT22;3548;48.402;9.990;2023-03-01T16:58:28;5.50;97.90
7016;DHT22;3548;48.402;9.990;2023-03-01T17:00:55;5.50;98.10
7016;DHT22;3548;48.402;9.990;2023-03-01T17:03:26;5.50;98.20
7016;DHT22;3548;48.402;9.990;2023-03-01T17:05:51;5.50;98.20
7016;DHT22;3548;48.402;9.990;2023-03-01T17:08:17;5.50;98.10
7016;DHT22;3548;48.402;9.990;2023-03-01T17:10:43;5.40;98.00
7016;DHT22;3548;48.402;9.990;2023-03-01T17:13:10;5.40;98.10
7016;DHT22;3548;48.402;9.990;2023-03-01T17:15:40;5.40;98.30
7016;DHT22;3548;48.402;9.990;2023-03-01T17:18:07;5.30;98.30
7016;DHT22;3548;48.402;9.990;2023-03-01T17:20:33;5.30;98.40
7016;DHT22;3548;48.402;9.990;2023-03-01T17:22:58;5.20;98.60
7016;DHT22;3548;48.402;9.990;2023-03-01T17:25:24;5.20;98.70
7016;DHT22;3548;48.402;9.990;2023-03-01T17:27:49;5.10;98.80
7016;DHT22;3548;48.402;9.990;2023-03-01T17:30:15;5.20;98.90
7016;DHT22;3548;48.402;9.990;2023-03-01T17:32:42;5.10;98.90
7016;DHT22;3548;48.402;9.990;2023-03-01T17:35:08;5.10;98.80
7016;DHT22;3548;48.402;9.990;2023-03-01T17:37:37;5.10;99.00
7016;DHT22;3548;48.402;9.990;2023-03-01T17:40:04;5.10;98.90
7016;DHT22;3548;48.402;9.990;2023-03-01T17:42:30;5.20;99.10
7016;DHT22;3548;48.402;9.990;2023-03-01T17:44:55;5.20;98.90
7016;DHT22;3548;48.402;9.990;2023-03-01T17:47:22;5.30;99.00
7016;DHT22;3548;48.402;9.990;2023-03-01T17:49:47;5.30;99.10
7016;DHT22;3548;48.402;9.990;2023-03-01T17:52:13;5.30;99.40
7016;DHT22;3548;48.402;9.990;2023-03-01T17:54:38;5.30;99.10
7016;DHT22;3548;48.402;9.990;2023-03-01T17:57:04;5.30;99.00
7016;DHT22;3548;48.402;9.990;2023-03-01T17:59:30;5.20;98.90
7016;DHT22;3548;48.402;9.990;2023-03-01T18:01:58;5.30;99.10
7016;DHT22;3548;48.402;9.990;2023-03-01T18:04:26;5.30;99.00
7016;DHT22;3548;48.402;9.990;2023-03-01T18:06:52;5.30;99.20
7016;DHT22;3548;48.402;9.990;2023-03-01T18:09:18;5.30;99.00
7016;DHT22;3548;48.402;9.990;2023-03-01T18:11:44;5.30;99.10
7016;DHT22;3548;48.402;9.990;2023-03-01T18:14:10;5.30;99.10
7016;DHT22;3548;48.402;9.990;2023-03-01T18:16:36;5.30;99.20
7016;DHT22;3548;48.402;9.990;2023-03-01T18:19:04;5.30;99.20
7016;DHT22;3548;48.402;9.990;2023-03-01T18:21:30;5.30;99.10